Time;durP1;ratioP1;P1;durP2;ratioP2;P2;SDS_P1;SDS_P2;PMS_P1;PMS_P2;Temp;Humidity;BMP_temperature;BMP_pressure;BME280_temperature;BME280_humidity;BME280_pressure;Samples;Min_cycle;Max_cycle;Signal;HPM_P1;HPM_P2
2022/03/02 00:00:38;;;;;;;0.20;0.20;;;;;;;8.90;100.00;100753.81;7397222;19;20130;-84
2022/03/02 00:03:03;;;;;;;0.35;0.35;;;;;;;8.88;100.00;100744.41;7394093;19;20011;-85
2022/03/02 00:05:30;;;;;;;0.43;0.22;;;;;;;8.84;100.00;100738.94;7392560;19;20478;-86
2022/03/02 00:07:56;;;;;;;0.65;0.60;;;;;;;8.84;100.00;100747.28;7391879;19;20484;-85
2022/03/02 00:10:22;;;;;;;1.17;0.50;;;;;;;8.78;100.00;100735.16;7392799;19;20015;-85
2022/03/02 00:12:48;;;;;;;1.55;0.50;;;;;;;8.80;100.00;100738.25;7392257;19;20024;-87
2022/03/02 00:15:16;;;;;;;0.20;0.20;;;;;;;8.77;100.00;100728.03;7391993;19;20078;-84
2022/03/02 00:17:42;;;;;;;0.63;0.63;;;;;;;8.83;100.00;100728.28;7392804;19;20019;-85
2022/03/02 00:20:08;;;;;;;6.55;0.90;;;;;;;8.79;100.00;100733.16;7394619;19;20423;-85
2022/03/02 00:22:33;;;;;;;1.30;0.63;;;;;;;8.78;100.00;100729.59;7392316;19;20015;-83
2022/03/02 00:24:59;;;;;;;4.13;0.82;;;;;;;8.74;100.00;100728.94;7389644;19;20022;-84
2022/03/02 00:27:25;;;;;;;3.83;0.68;;;;;;;8.68;100.00;100729.91;7392779;19;20022;-84
2022/03/02 00:29:51;;;;;;;1.23;0.73;;;;;;;8.74;100.00;100720.59;7390451;19;20027;-84
2022/03/02 00:32:17;;;;;;;4.47;0.85;;;;;;;8.69;100.00;100726.69;7393695;19;20015;-84
2022/03/02 00:34:44;;;;;;;0.30;0.30;;;;;;;8.69;100.00;100714.81;7389655;19;20028;-84
2022/03/02 00:37:09;;;;;;;0.28;0.25;;;;;;;8.72;100.00;100719.47;7391629;19;20022;-87
2022/03/02 00:39:35;;;;;;;6.75;1.30;;;;;;;8.70;100.00;100716.38;7389459;19;20031;-87
2022/03/02 00:42:01;;;;;;;0.75;0.30;;;;;;;8.72;100.00;100720.25;7390512;19;20025;-88
2022/03/02 00:44:27;;;;;;;0.65;0.40;;;;;;;8.73;100.00;100704.38;7391533;19;20465;-88
2022/03/02 00:46:53;;;;;;;2.47;0.85;;;;;;;8.75;100.00;100702.69;7393346;19;20011;-88
2022/03/02 00:49:20;;;;;;;0.77;0.60;;;;;;;8.78;100.00;100704.59;7394273;19;20496;-88
2022/03/02 00:51:46;;;;;;;1.38;0.52;;;;;;;8.74;100.00;100695.59;7396744;19;20019;-89
2022/03/02 00:54:11;;;;;;;1.17;0.50;;;;;;;8.71;100.00;100690.94;7393409;19;20456;-88
2022/03/02 00:56:37;;;;;;;5.78;0.57;;;;;;;8.61;100.00;100686.47;7395892;19;20018;-88
2022/03/02 00:59:03;;;;;;;1.33;0.35;;;;;;;8.62;100.00;100690.03;7394269;19;20015;-86
2022/03/02 01:01:28;;;;;;;0.60;0.43;;;;;;;8.63;100.00;100684.03;7398698;19;20018;-89
2022/03/02 01:03:54;;;;;;;0.75;0.40;;;;;;;8.66;100.00;100679.59;7392965;19;20022;-87
2022/03/02 01:06:20;;;;;;;2.28;0.80;;;;;;;8.63;100.00;100678.47;7392653;19;20105;-88
2022/03/02 01:08:46;;;;;;;1.80;0.88;;;;;;;8.60;100.00;100676.59;7393688;19;20041;-88
2022/03/02 01:11:12;;;;;;;2.25;0.77;;;;;;;8.62;100.00;100676.91;7398307;19;20014;-88
2022/03/02 01:13:37;;;;;;;0.57;0.45;;;;;;;8.59;100.00;100680.59;7392919;19;20014;-88
2022/03/02 01:16:03;;;;;;;0.47;0.47;;;;;;;8.59;100.00;100682.59;7394624;19;20039;-89
2022/03/02 01:18:30;;;;;;;5.35;1.60;;;;;;;8.61;100.00;100683.69;7393696;19;20010;-84
2022/03/02 01:20:56;;;;;;;1.60;0.75;;;;;;;8.61;100.00;100678.16;7392714;19;20018;-85
2022/03/02 01:23:21;;;;;;;3.15;0.50;;;;;;;8.59;100.00;100694.47;7393670;19;20102;-88
2022/03/02 01:25:47;;;;;;;2.33;0.70;;;;;;;8.57;100.00;100680.25;7392077;19;20018;-88
2022/03/02 01:28:12;;;;;;;1.50;0.80;;;;;;;8.51;100.00;100673.69;7394289;19;20042;-90
2022/03/02 01:30:38;;;;;;;3.55;0.70;;;;;;;8.47;100.00;100669.47;7395246;19;20077;-88
2022/03/02 01:33:04;;;;;;;1.25;0.88;;;;;;;8.45;100.00;100667.13;7392663;19;20110;-90
2022/03/02 01:35:29;;;;;;;2.22;0.70;;;;;;;8.45;100.00;100669.91;7390924;19;20330;-90
2022/03/02 01:37:55;;;;;;;2.67;0.70;;;;;;;8.39;100.00;100653.03;7392873;19;20077;-89
2022/03/02 01:40:21;;;;;;;3.40;1.23;;;;;;;8.43;100.00;100654.91;7396250;19;20014;-89
2022/03/02 01:42:46;;;;;;;2.00;1.33;;;;;;;8.44;100.00;100648.94;7392383;19;20010;-89
2022/03/02 01:45:14;;;;;;;0.63;0.63;;;;;;;8.45;100.00;100650.47;7391858;19;20007;-89
2022/03/02 01:47:40;;;;;;;2.28;0.47;;;;;;;8.46;100.00;100654.03;7392245;19;20015;-90
2022/03/02 01:50:09;;;;;;;6.78;1.65;;;;;;;8.45;100.00;100644.91;7391785;19;20018;-89
2022/03/02 01:52:34;;;;;;;1.42;0.32;;;;;;;8.45;100.00;100639.38;7392830;19;20010;-89
2022/03/02 01:55:00;;;;;;;0.63;0.52;;;;;;;8.52;100.00;100632.81;7397658;19;20046;-89
2022/03/02 01:57:27;;;;;;;2.55;1.38;;;;;;;8.52;100.00;100632.81;7399709;19;20022;-89
2022/03/02 01:59:52;;;;;;;8.95;2.08;;;;;;;8.45;100.00;100619.94;7402573;19;20032;-89
2022/03/02 02:02:18;;;;;;;2.50;1.00;;;;;;;8.48;100.00;100605.19;7400953;19;20014;-89
2022/03/02 02:04:44;;;;;;;1.23;0.77;;;;;;;8.48;100.00;100610.72;7399837;19;20493;-90
2022/03/02 02:07:09;;;;;;;1.65;1.05;;;;;;;8.48;100.00;100598.84;7398432;19;20034;-89
2022/03/02 02:09:35;;;;;;;2.65;1.00;;;;;;;8.48;100.00;100599.63;7398696;19;20047;-89
2022/03/02 02:12:01;;;;;;;1.48;1.02;;;;;;;8.46;100.00;100610.41;7396657;19;20070;-87
2022/03/02 02:14:26;;;;;;;1.35;1.02;;;;;;;8.49;100.00;100597.63;7395826;19;20361;-87
2022/03/02 02:16:53;;;;;;;7.65;1.63;;;;;;;8.45;100.00;100589.41;7400344;19;20014;-87
2022/03/02 02:19:18;;;;;;;8.77;0.98;;;;;;;8.45;100.00;100591.38;7398111;19;20011;-87
2022/03/02 02:21:46;;;;;;;2.95;1.30;;;;;;;8.42;100.00;100584.75;7402709;19;20029;-89
2022/03/02 02:24:13;;;;;;;1.65;0.90;;;;;;;8.45;100.00;100583.84;7398328;19;20370;-89
2022/03/02 02:26:39;;;;;;;3.05;0.85;;;;;;;8.43;100.00;100580.75;7396580;19;20015;-89
2022/03/02 02:29:05;;;;;;;1.85;0.68;;;;;;;8.42;100.00;100573.66;7397717;19;20015;-90
2022/03/02 02:31:31;;;;;;;1.05;0.85;;;;;;;8.44;100.00;100564.88;7400975;19;20436;-89
2022/03/02 02:33:57;;;;;;;2.85;1.55;;;;;;;8.45;100.00;100569.97;7393044;19;20529;-90
2022/03/02 02:36:23;;;;;;;5.18;0.85;;;;;;;8.45;100.00;100569.97;7400527;19;20013;-90
2022/03/02 02:38:49;;;;;;;3.35;0.77;;;;;;;8.45;100.00;100555.31;7398727;19;20018;-90
2022/03/02 02:41:18;;;;;;;0.70;0.70;;;;;;;8.43;100.00;100552.97;7401996;19;20456;-90
2022/03/02 02:43:44;;;;;;;4.40;1.10;;;;;;;8.39;100.00;100546.78;7398102;19;20007;-89
2022/03/02 02:46:11;;;;;;;1.35;1.02;;;;;;;8.43;100.00;100547.44;7396808;19;20479;-89
2022/03/02 02:48:37;;;;;;;1.17;0.50;;;;;;;8.45;100.00;100544.22;7399305;19;20492;-90
2022/03/02 02:51:04;;;;;;;0.20;0.20;;;;;;;8.44;100.00;100526.81;7398494;19;20014;-91
2022/03/02 02:53:30;;;;;;;4.68;0.47;;;;;;;8.47;100.00;100525.91;7397793;19;20034;-92
2022/03/02 02:56:13;;;;;;;;;;;;;;;;;;;;;
2022/03/02 02:58:41;;;;;;;1.60;0.95;;;;;;;8.45;100.00;100519.22;7399947;19;20030;-93
2022/03/02 03:01:22;;;;;;;2.33;1.73;;;;;;;8.48;100.00;100519.13;7402993;19;20015;-90
2022/03/02 03:03:49;;;;;;;2.70;0.93;;;;;;;8.48;100.00;100516.34;7395435;19;20019;-84
2022/03/02 03:06:25;;;;;;;;;;;;;;;;;;;;;
2022/03/02 03:09:00;;;;;;;0.93;0.30;;;;;;;8.45;100.00;100517.22;7398686;19;20011;-87
2022/03/02 03:11:31;;;;;;;0.70;0.60;;;;;;;8.48;100.00;100512.81;7400195;19;20092;-88
2022/03/02 03:13:57;;;;;;;0.98;0.85;;;;;;;8.48;100.00;100502.47;7397093;19;20330;-90
2022/03/02 03:16:23;;;;;;;0.85;0.52;;;;;;;8.55;100.00;100493.94;7398938;19;20015;-86
2022/03/02 03:18:48;;;;;;;2.00;0.70;;;;;;;8.58;100.00;100500.56;7395934;19;20010;-91
2022/03/02 03:21:14;;;;;;;7.22;0.82;;;;;;;8.59;100.00;100499.34;7399975;19;20022;-85
2022/03/02 03:23:43;;;;;;;0.57;0.47;;;;;;;8.56;100.00;100489.13;7393573;19;20038;-84
2022/03/02 03:26:17;;;;;;;1.15;0.88;;;;;;;8.58;100.00;100486.69;7393592;19;20085;-83
2022/03/02 03:29:01;;;;;;;2.35;0.80;;;;;;;8.62;100.00;100490.91;7394106;19;20026;-86
2022/03/02 03:31:36;;;;;;;0.65;0.40;;;;;;;8.62;100.00;100488.13;7401216;19;20011;-86
2022/03/02 03:34:02;;;;;;;0.90;0.30;;;;;;;8.67;100.00;100487.56;7395661;19;20029;-88
2022/03/02 03:36:38;;;;;;;;;;;;;;;;;;;;;
2022/03/02 03:39:07;;;;;;;3.40;0.65;;;;;;;8.71;100.00;100482.66;7396520;19;20026;-92
2022/03/02 03:41:33;;;;;;;1.38;0.45;;;;;;;8.72;100.00;100481.47;7398662;19;20014;-90
2022/03/02 03:43:58;;;;;;;4.47;0.52;;;;;;;8.78;100.00;100470.56;7396856;19;20025;-89
2022/03/02 03:46:24;;;;;;;1.50;1.02;;;;;;;8.80;100.00;100470.88;7394163;19;20006;-89
2022/03/02 03:48:50;;;;;;;0.10;0.10;;;;;;;8.80;100.00;100460.56;7397856;19;20010;-89
2022/03/02 03:51:15;;;;;;;6.93;0.70;;;;;;;8.78;100.00;100440.78;7400035;19;20516;-89
2022/03/02 03:53:41;;;;;;;0.50;0.40;;;;;;;8.79;100.00;100447.13;7395921;19;20349;-89
2022/03/02 03:56:07;;;;;;;0.68;0.30;;;;;;;8.80;100.00;100443.88;7398011;19;20014;-89
2022/03/02 03:58:32;;;;;;;0.47;0.22;;;;;;;8.81;100.00;100448.22;7397155;19;20006;-89
2022/03/02 04:00:58;;;;;;;0.90;0.45;;;;;;;8.79;100.00;100436.75;7398807;19;20018;-89
2022/03/02 04:03:24;;;;;;;1.27;0.80;;;;;;;8.75;100.00;100441.66;7395601;19;20031;-89
2022/03/02 04:05:50;;;;;;;0.52;0.38;;;;;;;8.75;100.00;100432.59;7394136;19;20015;-89
2022/03/02 04:08:15;;;;;;;1.08;0.60;;;;;;;8.70;100.00;100431.16;7395627;19;20487;-89
2022/03/02 04:10:42;;;;;;;0.20;0.20;;;;;;;8.67;100.00;100432.03;7395332;19;20656;-89
2022/03/02 04:13:08;;;;;;;2.67;0.45;;;;;;;8.70;100.00;100417.28;7393340;19;20395;-89
2022/03/02 04:15:33;;;;;;;1.02;0.28;;;;;;;8.72;100.00;100420.38;7393340;19;20010;-89
2022/03/02 04:17:59;;;;;;;0.30;0.30;;;;;;;8.73;100.00;100416.34;7395100;19;20014;-89
2022/03/02 04:20:25;;;;;;;0.25;0.20;;;;;;;8.72;100.00;100414.81;7398730;19;20030;-89
2022/03/02 04:22:51;;;;;;;0.63;0.30;;;;;;;8.70;100.00;100410.94;7395602;19;20306;-89
2022/03/02 04:25:16;;;;;;;0.65;0.47;;;;;;;8.71;100.00;100410.47;7394724;19;20014;-89
2022/03/02 04:27:42;;;;;;;0.63;0.63;;;;;;;8.72;100.00;100414.81;7394925;19;20030;-89
2022/03/02 04:30:09;;;;;;;2.72;0.43;;;;;;;8.75;100.00;100408.34;7396195;19;20082;-89
2022/03/02 04:32:34;;;;;;;2.00;1.10;;;;;;;8.73;100.00;100408.03;7394887;19;20033;-90
2022/03/02 04:35:00;;;;;;;0.57;0.57;;;;;;;8.72;100.00;100409.25;7394471;19;20014;-89
2022/03/02 04:37:26;;;;;;;0.17;0.17;;;;;;;8.72;100.00;100403.72;7394475;19;20358;-89
2022/03/02 04:39:51;;;;;;;0.20;0.20;;;;;;;8.71;100.00;100402.16;7395298;19;20019;-89
2022/03/02 04:42:17;;;;;;;1.13;0.47;;;;;;;8.75;100.00;100396.50;7395249;19;20011;-89
2022/03/02 04:44:43;;;;;;;1.23;0.30;;;;;;;8.74;100.00;100390.16;7394273;19;20015;-89
2022/03/02 04:47:08;;;;;;;2.72;0.43;;;;;;;8.74;100.00;100379.03;7392702;19;20007;-89
2022/03/02 04:49:34;;;;;;;3.85;1.17;;;;;;;8.77;100.00;100377.38;7392570;19;20017;-89
2022/03/02 04:52:00;;;;;;;3.22;0.90;;;;;;;8.83;100.00;100379.13;7392034;19;20029;-89
2022/03/02 04:57:10;;;;;;;0.50;0.43;;;;;;;8.86;100.00;100369.09;7394315;19;20050;-89
2022/03/02 04:59:36;;;;;;;0.90;0.45;;;;;;;8.85;100.00;100368.34;7396291;19;20035;-88
2022/03/02 05:02:02;;;;;;;1.75;0.65;;;;;;;8.86;100.00;100358.75;7393993;19;20367;-89
2022/03/02 05:04:27;;;;;;;0.52;0.32;;;;;;;8.84;100.00;100360.44;7395324;19;20461;-88
2022/03/02 05:06:53;;;;;;;0.95;0.63;;;;;;;8.78;100.00;100356.69;7393680;19;20019;-90
2022/03/02 05:09:19;;;;;;;8.77;0.52;;;;;;;8.79;100.00;100363.81;7392095;19;20031;-88
2022/03/02 05:11:44;;;;;;;0.30;0.30;;;;;;;8.78;100.00;100367.81;7396132;19;20039;-89
2022/03/02 05:14:10;;;;;;;0.95;0.73;;;;;;;8.81;100.00;100361.34;7393643;19;20014;-89
2022/03/02 05:16:35;;;;;;;0.47;0.47;;;;;;;8.83;100.00;100368.00;7394786;19;20014;-89
2022/03/02 05:19:01;;;;;;;2.38;0.68;;;;;;;8.82;100.00;100362.88;7394612;19;20468;-90
2022/03/02 05:21:26;;;;;;;0.55;0.40;;;;;;;8.83;100.00;100368.00;7397937;19;20043;-89
2022/03/02 05:23:52;;;;;;;0.55;0.55;;;;;;;8.80;100.00;100360.56;7393355;19;20018;-89
2022/03/02 05:26:17;;;;;;;2.15;0.80;;;;;;;8.80;100.00;100351.47;7389148;19;20050;-89
2022/03/02 05:28:43;;;;;;;1.40;0.43;;;;;;;8.76;100.00;100359.16;7395694;19;20033;-89
2022/03/02 05:31:08;;;;;;;0.88;0.73;;;;;;;8.77;100.00;100358.69;7406170;19;20014;-89
2022/03/02 05:33:34;;;;;;;1.05;0.50;;;;;;;8.77;100.00;100357.94;7401746;19;20472;-89
2022/03/02 05:35:59;;;;;;;0.60;0.60;;;;;;;8.77;100.00;100342.03;7400460;19;20070;-89
2022/03/02 05:38:25;;;;;;;0.63;0.47;;;;;;;8.79;100.00;100347.16;7400638;19;20082;-89
2022/03/02 05:40:51;;;;;;;0.40;0.40;;;;;;;8.79;100.00;100347.91;7404926;19;20037;-89
2022/03/02 05:43:16;;;;;;;0.50;0.47;;;;;;;8.80;100.00;100349.47;7401268;19;20014;-89
2022/03/02 05:45:42;;;;;;;5.50;1.10;;;;;;;8.81;100.00;100339.91;7398613;19;20014;-89
2022/03/02 05:48:09;;;;;;;4.15;0.68;;;;;;;8.78;100.00;100340.81;7398069;19;20018;-92
2022/03/02 05:50:34;;;;;;;6.75;1.35;;;;;;;8.76;100.00;100345.25;7401069;19;20010;-90
2022/03/02 05:53:00;;;;;;;2.53;1.20;;;;;;;8.74;100.00;100340.16;7398627;19;20392;-88
2022/03/02 05:55:25;;;;;;;3.90;0.65;;;;;;;8.78;100.00;100338.03;7396385;19;20473;-87
2022/03/02 05:57:51;;;;;;;1.52;0.75;;;;;;;8.76;100.00;100337.72;7400454;19;20014;-88
2022/03/02 06:00:17;;;;;;;1.38;0.57;;;;;;;8.78;100.00;100346.38;7401085;19;20014;-88
2022/03/02 06:02:42;;;;;;;3.13;1.17;;;;;;;8.78;100.00;100346.38;7398400;19;20015;-89
2022/03/02 06:05:11;;;;;;;7.30;1.13;;;;;;;8.80;100.00;100332.81;7397707;19;20034;-88
2022/03/02 06:07:37;;;;;;;2.97;0.88;;;;;;;8.79;100.00;100336.03;7396569;19;20415;-89
2022/03/02 06:10:03;;;;;;;0.88;0.75;;;;;;;8.77;100.00;100324.63;7397529;19;20373;-88
2022/03/02 06:12:29;;;;;;;5.35;1.05;;;;;;;8.78;100.00;100321.38;7396187;19;20015;-88
2022/03/02 06:14:55;;;;;;;3.30;2.53;;;;;;;8.79;100.00;100324.94;7397581;19;20015;-88
2022/03/02 06:17:20;;;;;;;0.65;0.65;;;;;;;8.80;100.00;100321.69;7400332;19;20475;-89
2022/03/02 06:19:46;;;;;;;0.90;0.70;;;;;;;8.80;100.00;100315.38;7401129;19;20420;-90
2022/03/02 06:22:16;;;;;;;6.25;1.50;;;;;;;8.70;100.00;100325.66;7400522;19;20021;-91
2022/03/02 06:24:41;;;;;;;2.70;1.25;;;;;;;8.84;100.00;100327.09;7396897;19;20034;-87
2022/03/02 06:27:07;;;;;;;5.22;1.83;;;;;;;8.85;100.00;100328.69;7396257;19;20014;-86
2022/03/02 06:29:32;;;;;;;12.07;3.03;;;;;;;8.80;100.00;100320.91;7394621;19;20014;-86
2022/03/02 06:31:58;;;;;;;5.55;1.35;;;;;;;8.72;100.00;100320.41;7393489;19;20010;-84
2022/03/02 06:34:24;;;;;;;9.43;2.58;;;;;;;8.78;100.00;100329.72;7393923;19;20019;-83
2022/03/02 06:36:51;;;;;;;7.25;2.25;;;;;;;8.79;100.00;100331.25;7395572;19;20024;-84
2022/03/02 06:39:18;;;;;;;13.07;3.10;;;;;;;8.77;100.00;100328.16;7396507;19;20035;-85
2022/03/02 06:42:09;;;;;;;9.90;2.05;;;;;;;8.79;100.00;100336.78;7398641;19;20060;-84
2022/03/02 06:44:46;;;;;;;4.28;1.92;;;;;;;8.83;100.00;100331.91;7393734;19;20561;-82
2022/03/02 06:47:13;;;;;;;4.22;1.50;;;;;;;8.90;100.00;100337.19;7391203;19;20010;-82
2022/03/02 06:49:57;;;;;;;6.22;2.83;;;;;;;8.91;100.00;100335.97;7390199;19;20018;-83
2022/03/02 06:52:32;;;;;;;9.13;2.47;;;;;;;8.88;100.00;100339.66;7391947;19;20074;-83
2022/03/02 06:55:01;;;;;;;10.52;2.33;;;;;;;8.87;100.00;100332.56;7391110;19;20536;-84
2022/03/02 06:57:29;;;;;;;9.60;2.45;;;;;;;8.89;100.00;100341.22;7396683;19;20019;-84
2022/03/02 07:00:00;;;;;;;9.57;1.60;;;;;;;8.89;100.00;100340.44;7396602;19;20422;-85
2022/03/02 07:02:46;;;;;;;8.07;2.13;;;;;;;8.86;100.00;100347.66;7397382;19;20500;-86
2022/03/02 07:05:12;;;;;;;8.80;2.05;;;;;;;8.85;100.00;100343.34;7396239;19;20018;-85
2022/03/02 07:07:38;;;;;;;10.75;1.40;;;;;;;8.85;100.00;100340.56;7393499;19;20010;-86
2022/03/02 07:10:09;;;;;;;16.88;2.78;;;;;;;8.86;100.00;100352.44;7396217;19;20003;-85
2022/03/02 07:12:36;;;;;;;3.37;1.07;;;;;;;8.87;100.00;100338.09;7396790;19;20017;-90
2022/03/02 07:15:02;;;;;;;14.45;3.33;;;;;;;8.87;100.00;100342.88;7396571;19;20010;-89
2022/03/02 07:17:31;;;;;;;3.80;1.48;;;;;;;8.92;100.00;100345.84;7398895;19;20014;-89
2022/03/02 07:19:59;;;;;;;4.90;1.02;;;;;;;8.94;100.00;100348.94;7398966;19;20153;-90
2022/03/02 07:22:31;;;;;;;7.28;2.22;;;;;;;8.88;100.00;100356.31;7397719;19;20014;-90
2022/03/02 07:25:05;;;;;;;11.18;3.65;;;;;;;8.93;100.00;100360.50;7397094;19;20498;-89
2022/03/02 07:27:31;;;;;;;5.10;1.10;;;;;;;8.90;100.00;100353.09;7396702;19;20006;-90
2022/03/02 07:29:56;;;;;;;12.30;2.75;;;;;;;8.88;100.00;100361.88;7395712;19;20010;-91
2022/03/02 07:32:28;;;;;;;2.33;1.23;;;;;;;8.87;100.00;100357.56;7395483;19;20014;-89
2022/03/02 07:34:56;;;;;;;12.77;3.22;;;;;;;8.89;100.00;100357.88;7396133;19;20014;-91
2022/03/02 07:37:23;;;;;;;6.40;2.55;;;;;;;8.90;100.00;100342.00;7398578;19;20014;-92
2022/03/02 07:39:49;;;;;;;2.38;1.35;;;;;;;8.90;100.00;100348.28;7397560;19;20011;-91
2022/03/02 07:42:15;;;;;;;4.43;0.98;;;;;;;8.92;100.00;100353.41;7397239;19;20038;-89
2022/03/02 07:44:44;;;;;;;7.38;0.85;;;;;;;8.91;100.00;100344.31;7396228;19;20011;-86
2022/03/02 07:47:09;;;;;;;1.50;0.98;;;;;;;8.92;100.00;100348.63;7394465;19;20006;-86
2022/03/02 07:49:35;;;;;;;1.65;1.20;;;;;;;8.91;100.00;100347.09;7394339;19;20511;-86
2022/03/02 07:52:05;;;;;;;5.80;1.00;;;;;;;8.92;100.00;100351.41;7393060;19;20475;-87
2022/03/02 07:54:35;;;;;;;4.68;1.17;;;;;;;8.92;100.00;100345.84;7394836;19;20015;-87
2022/03/02 07:57:01;;;;;;;12.48;0.85;;;;;;;8.98;100.00;100346.84;7395512;19;20019;-85
2022/03/02 07:59:33;;;;;;;2.60;1.15;;;;;;;8.97;100.00;100347.25;7393761;19;20018;-87
2022/03/02 08:01:59;;;;;;;6.30;1.77;;;;;;;8.95;100.00;100344.94;7394794;19;20035;-87
2022/03/02 08:04:27;;;;;;;12.02;2.10;;;;;;;8.98;100.00;100335.72;7393550;19;20046;-83
2022/03/02 08:06:54;;;;;;;1.42;1.27;;;;;;;8.98;100.00;100344.06;7394719;19;20086;-94
2022/03/02 08:09:20;;;;;;;10.75;2.33;;;;;;;9.02;100.00;100344.69;7395538;19;20437;-88
2022/03/02 08:11:46;;;;;;;3.40;1.33;;;;;;;9.04;100.00;100338.69;7397015;19;20022;-82
2022/03/02 08:14:12;;;;;;;4.93;0.98;;;;;;;9.05;100.00;100343.78;7394854;19;20049;-84
2022/03/02 08:16:37;;;;;;;9.95;2.22;;;;;;;9.07;100.00;100341.31;7405112;19;20014;-95
2022/03/02 08:19:07;;;;;;;6.30;0.77;;;;;;;9.07;100.00;100340.56;7410951;19;20011;-94
2022/03/02 08:21:35;;;;;;;7.07;1.25;;;;;;;9.01;100.00;100343.13;7404104;19;20011;-89
2022/03/02 08:24:05;;;;;;;5.38;1.70;;;;;;;9.03;100.00;100343.44;7393581;19;20034;-90
2022/03/02 08:26:33;;;;;;;6.28;1.80;;;;;;;9.03;100.00;100340.66;7397701;19;20018;-92
2022/03/02 08:29:11;;;;;;;1.30;1.25;;;;;;;9.00;100.00;100333.25;7397231;19;20084;-92
2022/03/02 08:31:40;;;;;;;2.20;1.05;;;;;;;9.05;100.00;100349.31;7398111;19;20046;-91
2022/03/02 08:34:06;;;;;;;3.65;1.85;;;;;;;9.02;100.00;100339.13;7393232;19;20038;-92
2022/03/02 08:36:34;;;;;;;6.15;1.80;;;;;;;9.03;100.00;100343.44;7395159;19;20040;-91
2022/03/02 08:39:05;;;;;;;9.63;2.22;;;;;;;9.04;100.00;100338.69;7394662;19;20110;-93
2022/03/02 08:41:31;;;;;;;11.75;2.25;;;;;;;9.04;100.00;100335.91;7399005;19;20011;-90
2022/03/02 08:43:57;;;;;;;4.47;1.42;;;;;;;9.01;100.00;100336.78;7392349;19;20014;-89
2022/03/02 08:46:24;;;;;;;12.88;2.75;;;;;;;9.03;100.00;100328.81;7392279;19;20014;-89
2022/03/02 08:48:50;;;;;;;5.40;1.77;;;;;;;9.06;100.00;100337.00;7394461;19;20023;-90
2022/03/02 08:51:20;;;;;;;7.38;2.15;;;;;;;9.08;100.00;100342.88;7398049;19;20014;-91
2022/03/02 08:53:48;;;;;;;2.70;1.83;;;;;;;9.06;100.00;100328.66;7390550;19;20136;-90
2022/03/02 08:56:14;;;;;;;6.65;3.72;;;;;;;9.05;100.00;100332.66;7390655;19;20018;-89
2022/03/02 08:58:41;;;;;;;7.53;2.50;;;;;;;9.06;100.00;100334.22;7389687;19;20025;-89
2022/03/02 09:01:11;;;;;;;2.75;1.85;;;;;;;9.09;100.00;100333.31;7395004;19;20014;-90
2022/03/02 09:03:37;;;;;;;4.38;2.50;;;;;;;9.09;100.00;100327.78;7393322;19;20019;-90
2022/03/02 09:06:04;;;;;;;13.25;2.42;;;;;;;9.12;100.00;100321.28;7399144;19;20014;-92
2022/03/02 09:08:32;;;;;;;8.75;2.83;;;;;;;9.14;100.00;100329.94;7402551;19;20333;-90
2022/03/02 09:10:59;;;;;;;7.60;3.17;;;;;;;9.18;100.00;100329.03;7404520;19;20130;-93
2022/03/02 09:13:25;;;;;;;7.57;1.90;;;;;;;9.21;100.00;100322.56;7399807;19;20018;-91
2022/03/02 09:15:51;;;;;;;8.93;2.85;;;;;;;9.22;100.00;100324.13;7399708;19;20011;-90
2022/03/02 09:18:17;;;;;;;10.32;3.10;;;;;;;9.24;100.00;100324.44;7400838;19;20011;-92
2022/03/02 09:20:44;;;;;;;2.58;1.27;;;;;;;9.23;100.00;100326.44;7403715;19;20037;-90
2022/03/02 09:23:10;;;;;;;10.23;2.67;;;;;;;9.23;100.00;100325.66;7401773;19;20018;-88
2022/03/02 09:25:40;;;;;;;16.27;3.70;;;;;;;9.20;100.00;100324.59;7399806;19;20011;-89
2022/03/02 09:28:09;;;;;;;4.68;2.15;;;;;;;9.31;100.00;100311.06;7398004;19;20010;-89
2022/03/02 09:30:36;;;;;;;14.82;3.33;;;;;;;9.26;100.00;100313.63;7400484;19;20031;-89
2022/03/02 09:33:02;;;;;;;12.25;3.63;;;;;;;9.35;100.00;100316.47;7398784;19;20018;-89
2022/03/02 09:35:29;;;;;;;11.43;3.72;;;;;;;9.37;100.00;100320.34;7399475;19;20006;-90
2022/03/02 09:37:56;;;;;;;6.68;1.60;;;;;;;9.36;100.00;100309.66;7399730;19;20430;-90
2022/03/02 09:40:26;;;;;;;7.35;2.55;;;;;;;9.41;100.00;100309.88;7403152;19;20015;-91
2022/03/02 09:43:01;;;;;;;7.93;3.08;;;;;;;9.49;100.00;100307.56;7400666;19;20078;-91
2022/03/02 09:45:30;;;;;;;11.40;2.97;;;;;;;9.53;100.00;100308.22;7399400;19;20022;-90
2022/03/02 09:48:03;;;;;;;9.88;3.30;;;;;;;9.56;100.00;100305.28;7398813;19;20014;-91
2022/03/02 09:50:32;;;;;;;9.75;2.40;;;;;;;9.60;100.00;100305.16;7398975;19;20014;-91
2022/03/02 09:53:01;;;;;;;7.57;2.10;;;;;;;9.64;100.00;100314.13;7396450;19;20018;-91
2022/03/02 09:55:27;;;;;;;10.13;2.20;;;;;;;9.66;100.00;100309.66;7397653;19;20018;-92
2022/03/02 09:57:55;;;;;;;7.57;1.42;;;;;;;9.68;100.00;100312.00;7401661;19;20025;-92
2022/03/02 10:00:23;;;;;;;8.68;2.45;;;;;;;9.71;100.00;100309.06;7402315;19;20021;-91
2022/03/02 10:02:55;;;;;;;6.80;2.17;;;;;;;9.79;100.00;100307.53;7401101;19;20023;-93
2022/03/02 10:05:24;;;;;;;5.05;2.45;;;;;;;9.77;100.00;100317.56;7399089;19;20019;-88
2022/03/02 10:07:58;;;;;;;9.35;2.25;;;;;;;9.71;100.00;100316.63;7397203;19;20022;-91
2022/03/02 10:10:27;;;;;;;6.13;1.63;;;;;;;9.70;100.00;100313.06;7400429;19;20011;-90
2022/03/02 10:12:56;;;;;;;2.60;1.17;;;;;;;9.73;100.00;100308.59;7397744;19;20329;-90
2022/03/02 10:15:22;;;;;;;4.53;1.83;;;;;;;9.87;100.00;100308.03;7395501;19;20019;-90
2022/03/02 10:17:53;;;;;;;8.73;2.70;;;;;;;9.89;100.00;100313.91;7401011;19;20014;-90
2022/03/02 10:20:23;;;;;;;;;;;;;;;9.87;100.00;100313.59;7401132;19;20034;-90
2022/03/02 10:23:25;;;;;;;2.97;1.52;;;;;;;9.81;100.00;100305.06;7398664;19;19922;-89
2022/03/02 10:26:02;;;;;;;4.80;2.05;;;;;;;9.74;100.00;100304.59;7396330;19;20048;-88
2022/03/02 10:28:55;;;;;;;5.13;1.80;;;;;;;9.74;100.00;100304.59;7396941;19;20082;-92
2022/03/02 10:31:44;;;;;;;2.63;1.45;;;;;;;9.75;100.00;100301.34;7400734;19;20011;-91
2022/03/02 10:34:27;;;;;;;2.47;1.45;;;;;;;9.72;100.00;100298.72;7397916;19;20103;-90
2022/03/02 10:37:08;;;;;;;10.93;2.58;;;;;;;9.72;100.00;100302.25;7399667;19;20006;-90
2022/03/02 10:40:12;;;;;;;3.63;1.35;;;;;;;9.69;100.00;100296.84;7399105;19;20496;-89
2022/03/02 10:42:57;;;;;;;6.03;2.53;;;;;;;9.68;100.00;100295.31;7402306;19;20011;-95
2022/03/02 10:45:25;;;;;;;9.70;1.83;;;;;;;9.67;100.00;100297.31;7403738;19;20479;-96
2022/03/02 10:48:13;;;;;;;7.00;1.75;;;;;;;9.71;100.00;100288.81;7407850;19;20018;-48
2022/03/02 10:50:41;;;;;;;9.38;3.28;;;;;;;9.74;100.00;100299.81;7397737;19;20041;-49
2022/03/02 10:53:15;;;;;;;2.08;1.17;;;;;;;9.77;100.00;100293.31;7395892;19;20058;-48
2022/03/02 10:55:47;;;;;;;1.38;0.95;;;;;;;9.76;100.00;100279.88;7395629;19;20018;-48
2022/03/02 10:58:14;;;;;;;7.47;1.80;;;;;;;9.90;100.00;100291.19;7393854;19;20046;-48
2022/03/02 11:00:40;;;;;;;2.63;1.73;;;;;;;9.73;100.00;100286.34;7397527;19;20015;-48
2022/03/02 11:03:07;;;;;;;3.72;2.28;;;;;;;9.69;100.00;100288.50;7396084;19;20012;-48
2022/03/02 11:05:34;;;;;;;5.85;1.45;;;;;;;9.65;100.00;100290.66;7394841;19;20006;-48
2022/03/02 11:08:00;;;;;;;6.10;1.45;;;;;;;9.66;100.00;100289.41;7395585;19;20463;-49
2022/03/02 11:10:33;;;;;;;6.50;1.88;;;;;;;9.69;100.00;100288.50;7396269;19;20463;-48
2022/03/02 11:13:10;;;;;;;9.85;1.80;;;;;;;9.69;100.00;100285.72;7394877;19;20010;-48
2022/03/02 11:15:48;;;;;;;4.75;0.93;;;;;;;9.73;100.00;100289.13;7395595;19;20085;-48
2022/03/02 11:18:17;;;;;;;8.07;2.17;;;;;;;9.70;100.00;100281.72;7395922;19;20016;-48
2022/03/02 11:20:59;;;;;;;9.50;2.63;;;;;;;9.72;100.00;100282.03;7396819;19;20038;-48
2022/03/02 11:23:26;;;;;;;6.18;1.25;;;;;;;9.69;100.00;100280.16;7394425;19;20018;-49
2022/03/02 11:25:54;;;;;;;4.30;1.52;;;;;;;9.66;100.00;100276.28;7391276;19;20447;-47
2022/03/02 11:28:24;;;;;;;4.70;1.95;;;;;;;9.68;100.00;100281.41;7393564;19;20006;-48
2022/03/02 11:31:02;;;;;;;5.45;2.83;;;;;;;9.69;100.00;100280.16;7396742;19;20022;-47
2022/03/02 11:33:29;;;;;;;3.95;1.80;;;;;;;9.71;100.00;100264.56;7394733;19;21099;-47
2022/03/02 11:36:01;;;;;;;10.50;2.53;;;;;;;9.69;100.00;100280.16;7394889;19;20015;-47